Time;durP1;ratioP1;P1;durP2;ratioP2;P2;SDS_P1;SDS_P2;PMS_P1;PMS_P2;Temp;Humidity;BMP_temperature;BMP_pressure;BME280_temperature;BME280_humidity;BME280_pressure;Samples;Min_cycle;Max_cycle;Signal;HPM_P1;HPM_P2
2022/08/11 00:00:43;;;;;;;5.68;3.05;;;;;;;18.91;100.00;102110.06;6513364;22;20016;-81
2022/08/11 00:03:16;;;;;;;4.80;2.97;;;;;;;18.85;100.00;102112.44;6540572;22;20115;-82
2022/08/11 00:05:54;;;;;;;6.82;2.92;;;;;;;18.73;100.00;102104.78;6540081;22;20369;-82
2022/08/11 00:08:29;;;;;;;3.90;3.33;;;;;;;18.71;100.00;102108.47;6512884;22;20406;-82
2022/08/11 00:11:03;;;;;;;6.15;2.70;;;;;;;18.70;100.00;102117.59;6539731;22;20027;-82
2022/08/11 00:13:44;;;;;;;5.65;3.03;;;;;;;18.67;100.00;102109.84;6513609;22;20361;-82
2022/08/11 00:16:24;;;;;;;3.67;3.00;;;;;;;18.55;100.00;102099.47;6512817;22;20476;-82
2022/08/11 00:18:57;;;;;;;3.88;2.90;;;;;;;18.61;100.00;102104.22;6513686;22;20011;-81
2022/08/11 00:21:29;;;;;;;5.93;3.08;;;;;;;18.51;100.00;102099.81;6541796;22;19992;-82
2022/08/11 00:24:02;;;;;;;7.35;3.25;;;;;;;18.56;100.00;102104.72;6540606;22;20411;-82
2022/08/11 00:26:35;;;;;;;5.57;2.97;;;;;;;18.55;100.00;102108.44;6541228;22;20381;-81
2022/08/11 00:29:11;;;;;;;4.55;2.78;;;;;;;18.51;100.00;102109.75;6512113;22;19992;-82
2022/08/11 00:31:49;;;;;;;6.00;3.30;;;;;;;18.47;100.00;102103.00;6539833;22;19996;-82
2022/08/11 00:34:25;;;;;;;5.10;3.30;;;;;;;18.51;100.00;102109.75;6539572;22;19996;-82
2022/08/11 00:37:02;;;;;;;4.82;3.25;;;;;;;18.49;100.00;102111.78;6540325;22;19996;-82
2022/08/11 00:39:45;;;;;;;7.07;3.58;;;;;;;18.52;100.00;102106.06;6539167;22;20415;-82
2022/08/11 00:42:44;;;;;;;4.32;3.40;;;;;;;18.38;100.00;102112.94;6538929;22;20002;-82
2022/08/11 00:45:34;;;;;;;4.03;3.00;;;;;;;18.23;100.00;102117.25;6512082;22;20017;-82
2022/08/11 00:48:27;;;;;;;6.43;3.50;;;;;;;18.23;100.00;102111.84;6539898;22;19996;-81
2022/08/11 00:51:24;;;;;;;6.57;3.40;;;;;;;18.17;100.00;102099.84;6540402;22;20409;-82
2022/08/11 00:54:27;;;;;;;5.88;3.03;;;;;;;18.04;100.00;102107.53;6512655;22;20023;-82
2022/08/11 00:57:29;;;;;;;6.47;3.30;;;;;;;17.99;100.00;102101.78;6516576;22;20008;-82
2022/08/11 01:00:04;;;;;;;6.40;3.13;;;;;;;17.95;100.00;102102.13;6570528;22;20022;-82
2022/08/11 01:03:13;;;;;;;5.63;3.13;;;;;;;17.94;100.00;102099.59;6570315;22;20004;-83
2022/08/11 01:05:56;;;;;;;5.30;2.95;;;;;;;17.93;100.00;102093.34;6571124;22;20008;-83
2022/08/11 01:08:58;;;;;;;7.15;3.80;;;;;;;17.93;100.00;102105.97;6567557;22;20040;-82
2022/08/11 01:12:06;;;;;;;6.05;3.05;;;;;;;17.85;100.00;102097.81;6558102;22;20000;-83
2022/08/11 01:15:12;;;;;;;6.32;3.38;;;;;;;17.81;100.00;102100.00;6554406;22;20357;-83
2022/08/11 01:17:46;;;;;;;4.93;3.90;;;;;;;17.77;100.00;102096.75;6527329;22;20004;-83
2022/08/11 01:20:30;;;;;;;6.15;3.35;;;;;;;17.71;100.00;102097.41;6544086;22;20000;-83
2022/08/11 01:23:07;;;;;;;3.67;3.38;;;;;;;17.68;100.00;102099.56;6513398;22;20022;-83
2022/08/11 01:25:41;;;;;;;5.18;3.65;;;;;;;17.70;100.00;102103.78;6539671;22;30107;-82
2022/08/11 01:28:47;;;;;;;9.38;3.50;;;;;;;17.57;100.00;102111.47;6512976;22;20066;-83
2022/08/11 01:31:40;;;;;;;7.55;3.60;;;;;;;17.64;100.00;102111.69;6540214;22;20059;-81
2022/08/11 01:34:24;;;;;;;7.13;3.70;;;;;;;17.61;100.00;102106.59;6539257;22;20001;-81
2022/08/11 01:37:23;;;;;;;4.38;3.63;;;;;;;17.63;100.00;102113.53;6512998;22;20008;-81
2022/08/11 01:40:38;;;;;;;7.72;4.05;;;;;;;17.53;100.00;102119.03;6539359;22;20012;-82
2022/08/11 01:46:43;;;;;;;5.30;4.25;;;;;;;17.51;100.00;102114.78;6540654;22;20000;-82
2022/08/11 01:49:24;;;;;;;5.47;3.80;;;;;;;17.57;100.00;102111.47;6512956;22;20004;-82
2022/08/11 01:52:27;;;;;;;5.32;3.88;;;;;;;17.56;100.00;102115.16;6539901;22;19992;-82
2022/08/11 01:55:17;;;;;;;7.43;3.60;;;;;;;17.59;100.00;102117.53;6540202;22;20004;-82
2022/08/11 01:58:14;;;;;;;4.43;3.63;;;;;;;17.52;100.00;102116.50;6540006;22;20078;-82
2022/08/11 02:01:23;;;;;;;5.38;3.97;;;;;;;17.43;100.00;102110.19;6539872;22;19992;-82
2022/08/11 02:04:17;;;;;;;5.82;4.50;;;;;;;17.43;100.00;102112.88;6539821;22;20008;-82
2022/08/11 02:07:00;;;;;;;7.75;3.80;;;;;;;17.42;100.00;102105.78;6513018;22;20042;-82
2022/08/11 02:13:36;;;;;;;4.57;3.53;;;;;;;17.30;100.00;102117.81;6456733;22;20001;-83
2022/08/11 02:16:41;;;;;;;5.35;3.85;;;;;;;17.23;100.00;102119.44;6527851;22;20008;-83
2022/08/11 02:25:35;;;;;;;7.25;4.63;;;;;;;17.06;100.00;102113.91;6541460;22;20005;-83
2022/08/11 02:28:28;;;;;;;5.40;4.80;;;;;;;17.02;100.00;102115.22;6541132;22;20003;-83
2022/08/11 02:35:02;;;;;;;6.38;4.20;;;;;;;16.94;100.00;102104.38;6499647;22;20608;-81
2022/08/11 02:37:44;;;;;;;6.68;4.25;;;;;;;16.96;100.00;102107.75;6540282;22;20071;-82
2022/08/11 02:40:30;;;;;;;8.50;4.63;;;;;;;16.90;100.00;102109.22;6540037;22;20004;-82
2022/08/11 02:43:09;;;;;;;9.02;4.20;;;;;;;16.87;100.00;102103.28;6512367;22;20497;-82
2022/08/11 02:45:53;;;;;;;8.77;3.60;;;;;;;16.84;100.00;102101.72;6538751;22;20017;-81
2022/08/11 02:52:06;;;;;;;4.50;4.10;;;;;;;16.73;100.00;102099.25;6538646;22;20419;-80
2022/08/11 02:55:19;;;;;;;5.18;3.78;;;;;;;16.69;100.00;102104.09;6537397;22;20008;-81
2022/08/11 02:58:02;;;;;;;5.13;4.57;;;;;;;16.70;100.00;102100.38;6539386;22;20449;-80
2022/08/11 03:00:50;;;;;;;7.07;3.92;;;;;;;16.58;100.00;102102.44;6538724;22;19992;-81
2022/08/11 03:03:33;;;;;;;10.07;4.32;;;;;;;16.64;100.00;102106.38;6540103;22;20542;-81
2022/08/11 03:06:18;;;;;;;4.80;4.18;;;;;;;16.57;100.00;102098.06;6538559;22;20079;-82
2022/08/11 03:09:17;;;;;;;7.53;4.75;;;;;;;16.48;100.00;102103.50;6540405;22;19992;-83
2022/08/11 03:18:01;;;;;;;5.57;4.45;;;;;;;16.32;100.00;102109.53;6540127;22;20004;-83
2022/08/11 03:20:50;;;;;;;9.60;4.63;;;;;;;16.25;100.00;102104.75;6512595;22;20004;-83
2022/08/11 03:23:32;;;;;;;6.93;4.07;;;;;;;16.25;100.00;102101.19;6539298;22;20068;-83
2022/08/11 03:26:24;;;;;;;10.43;4.57;;;;;;;16.21;100.00;102113.28;6540374;22;19999;-83
2022/08/11 03:29:22;;;;;;;6.47;4.78;;;;;;;16.08;100.00;102105.56;6539692;22;20131;-82
2022/08/11 03:32:21;;;;;;;6.50;4.63;;;;;;;16.11;100.00;102104.38;6512907;22;20020;-82
2022/08/11 03:34:54;;;;;;;5.63;4.60;;;;;;;16.22;100.00;102113.13;6540499;22;20085;-82
2022/08/11 03:37:50;;;;;;;5.57;4.38;;;;;;;16.16;100.00;102107.50;6514722;22;20032;-82
2022/08/11 03:44:02;;;;;;;6.05;4.45;;;;;;;16.15;100.00;102116.56;6541359;22;20016;-83
2022/08/11 03:46:58;;;;;;;6.82;5.15;;;;;;;16.08;100.00;102113.63;6540949;22;20043;-81
2022/08/11 03:50:01;;;;;;;8.30;5.35;;;;;;;16.04;100.00;102104.13;6539715;22;33882;-82
2022/08/11 03:53:04;;;;;;;5.88;4.90;;;;;;;16.00;100.00;102106.25;6540320;22;20000;-83
2022/08/11 03:56:03;;;;;;;7.95;5.22;;;;;;;16.01;100.00;102112.53;6540385;22;20012;-83
2022/08/11 03:58:50;;;;;;;8.85;5.45;;;;;;;16.02;100.00;102100.75;6541636;22;19997;-83
2022/08/11 04:01:56;;;;;;;10.65;5.38;;;;;;;15.95;100.00;102107.72;6540266;22;20078;-82
2022/08/11 04:04:50;;;;;;;7.25;5.07;;;;;;;15.94;100.00;102108.72;6539743;22;20004;-81
2022/08/11 04:07:39;;;;;;;10.70;5.72;;;;;;;15.94;100.00;102103.34;6540044;22;20410;-82
2022/08/11 04:10:35;;;;;;;8.40;5.55;;;;;;;15.88;100.00;102097.56;6539464;22;20347;-81
2022/08/11 04:13:40;;;;;;;8.75;5.05;;;;;;;15.77;100.00;102099.56;6539144;22;20401;-79
2022/08/11 04:16:52;;;;;;;6.68;5.72;;;;;;;15.77;100.00;102099.56;6536557;22;19996;-81
2022/08/11 04:20:00;;;;;;;8.98;5.60;;;;;;;15.77;100.00;102096.88;6542118;22;20079;-80
2022/08/11 04:22:50;;;;;;;7.53;5.40;;;;;;;15.79;100.00;102100.25;6544721;22;20000;-80
2022/08/11 04:25:21;;;;;;;8.63;5.75;;;;;;;15.76;100.00;102104.09;6539900;22;20000;-81
2022/08/11 04:28:38;;;;;;;7.10;5.50;;;;;;;15.70;100.00;102104.63;6541514;22;19996;-81
2022/08/11 04:31:59;;;;;;;7.63;5.45;;;;;;;15.66;100.00;102103.25;6524482;22;20238;-81
2022/08/11 04:34:49;;;;;;;7.78;5.07;;;;;;;15.64;100.00;102098.00;6540373;22;20378;-81
2022/08/11 04:37:49;;;;;;;11.15;5.57;;;;;;;15.62;100.00;102110.75;6539418;22;19996;-81
2022/08/11 04:40:48;;;;;;;7.85;5.93;;;;;;;15.62;100.00;102107.19;6541470;22;20415;-81
2022/08/11 04:43:46;;;;;;;10.65;5.85;;;;;;;15.57;100.00;102104.97;6538490;22;20011;-80
2022/08/11 04:46:25;;;;;;;;;;;;;;;15.50;100.00;102104.69;6538378;22;20011;-82
2022/08/11 05:02:50;;;;;;;10.57;6.20;;;;;;;15.70;100.00;102113.53;6542092;22;20008;-80
2022/08/11 05:06:09;;;;;;;9.18;6.30;;;;;;;15.75;100.00;102106.94;6514771;22;19992;-80
2022/08/11 05:09:16;;;;;;;13.35;6.38;;;;;;;15.88;100.00;102111.00;6514765;22;20028;-80
2022/08/11 05:11:59;;;;;;;12.30;6.68;;;;;;;15.93;100.00;102117.78;6442873;23;20104;-80
2022/08/11 05:36:26;;;;;;;9.70;6.72;;;;;;;17.38;100.00;102115.19;6541955;22;20433;-80
2022/08/11 05:56:20;;;;;;;11.15;6.93;;;;;;;19.39;100.00;102111.97;6541419;22;20431;-81
2022/08/11 05:58:53;;;;;;;9.82;6.45;;;;;;;19.46;100.00;102110.25;6514160;22;20035;-82
2022/08/11 06:01:29;;;;;;;11.55;6.80;;;;;;;19.82;100.00;102109.03;6541367;22;20027;-81
2022/08/11 06:04:15;;;;;;;7.32;6.13;;;;;;;20.00;100.00;102098.84;6541247;22;19988;-82
2022/08/11 06:06:59;;;;;;;10.45;6.38;;;;;;;20.29;100.00;102113.63;6540937;22;20051;-81
2022/08/11 06:09:33;;;;;;;9.68;6.50;;;;;;;20.51;100.00;102119.28;6540761;22;20024;-81
2022/08/11 06:12:15;;;;;;;13.05;6.82;;;;;;;20.78;100.00;102113.38;6541356;22;20000;-82
2022/08/11 06:15:09;;;;;;;13.23;6.43;;;;;;;20.84;100.00;102114.53;6513811;22;20070;-82
2022/08/11 06:17:45;;;;;;;8.60;5.95;;;;;;;21.40;100.00;102118.88;6540474;22;20504;-81
2022/08/11 06:20:18;;;;;;;6.30;5.72;;;;;;;21.57;100.00;102115.00;6540788;22;20067;-82
2022/08/11 06:23:01;;;;;;;12.88;6.13;;;;;;;21.64;100.00;102107.81;6514825;22;20050;-82
2022/08/11 06:25:34;;;;;;;8.68;5.85;;;;;;;21.92;100.00;102107.16;6514032;22;20078;-82
2022/08/11 06:28:07;;;;;;;11.57;5.43;;;;;;;22.10;100.00;102117.66;6541308;22;19996;-82
2022/08/11 06:30:44;;;;;;;11.48;6.05;;;;;;;22.54;100.00;102119.50;6514317;22;19993;-82
2022/08/11 06:33:29;;;;;;;8.73;5.75;;;;;;;22.77;100.00;102124.81;6541109;22;20003;-82
2022/08/11 06:36:15;;;;;;;7.00;5.72;;;;;;;23.14;100.00;102116.59;6540710;22;20011;-82
2022/08/11 06:39:19;;;;;;;8.50;5.20;;;;;;;23.46;100.00;102119.78;6540870;22;20071;-82
2022/08/11 06:42:01;;;;;;;7.72;5.13;;;;;;;23.51;100.00;102122.75;6541288;22;20019;-82
2022/08/11 06:44:40;;;;;;;9.45;5.60;;;;;;;24.04;100.00;102123.16;6541158;22;20103;-82
2022/08/11 06:47:14;;;;;;;7.65;5.35;;;;;;;24.28;100.00;102126.41;6515438;22;19996;-82
2022/08/11 06:52:41;;;;;;;7.63;5.30;;;;;;;25.09;100.00;102126.47;6542522;22;20040;-82
2022/08/11 07:00:26;;;;;;;8.55;5.18;;;;;;;25.39;100.00;102130.72;6542823;22;20502;-82
2022/08/11 07:01:12;;;;;;;6.63;4.75;;;;;;;25.73;100.00;102126.91;6542299;22;20036;-82
2022/08/11 07:03:47;;;;;;;9.45;4.72;;;;;;;26.09;100.00;102119.28;6542704;22;20015;-82
2022/08/11 07:06:37;;;;;;;7.53;4.30;;;;;;;25.96;100.00;102118.25;6542582;22;20000;-82
2022/08/11 07:15:40;;;;;;;9.52;4.97;;;;;;;27.76;93.30;102123.72;6541987;22;20012;-82
2022/08/11 07:30:10;;;;;;;8.43;4.30;;;;;;;29.68;73.62;102127.59;6542207;22;20000;-82
2022/08/11 07:32:51;;;;;;;6.85;3.85;;;;;;;30.06;70.53;102123.50;6542632;22;20075;-82
2022/08/11 07:35:31;;;;;;;12.50;4.35;;;;;;;30.19;69.05;102121.53;6541127;22;20302;-82
2022/08/11 07:38:17;;;;;;;10.02;4.88;;;;;;;30.41;64.92;102124.50;6541388;22;20024;-82
2022/08/11 07:40:50;;;;;;;8.00;4.00;;;;;;;30.98;62.04;102116.25;6542222;22;19999;-82
2022/08/11 07:43:21;;;;;;;7.45;3.97;;;;;;;31.02;59.75;102122.09;6541917;22;19993;-82
2022/08/11 07:54:27;;;;;;;5.13;3.58;;;;;;;32.60;49.76;102119.91;6541270;22;20103;-80
2022/08/11 07:56:59;;;;;;;8.15;3.42;;;;;;;32.41;48.00;102120.22;6542238;22;19996;-80
2022/08/11 08:19:26;;;;;;;6.78;2.60;;;;;;;35.60;34.78;102124.53;6541684;22;20012;-80
2022/08/11 08:21:58;;;;;;;7.18;2.60;;;;;;;35.97;33.09;102115.00;6542236;22;20047;-80
2022/08/11 08:24:31;;;;;;;8.88;2.30;;;;;;;36.22;32.21;102116.03;6542029;22;19996;-80
2022/08/11 08:27:03;;;;;;;5.85;2.90;;;;;;;36.81;30.64;102120.66;6541413;22;20022;-80
2022/08/11 08:32:27;;;;;;;5.55;2.65;;;;;;;36.89;30.34;102122.03;6541648;22;20079;-80
2022/08/11 08:34:59;;;;;;;6.35;2.90;;;;;;;36.63;29.80;102122.16;6541662;22;20000;-80
2022/08/11 08:37:31;;;;;;;8.32;2.60;;;;;;;36.76;28.75;102125.44;6514769;22;20000;-80
2022/08/11 08:40:06;;;;;;;5.20;2.42;;;;;;;37.78;28.51;102118.09;6541400;22;20050;-80
2022/08/11 08:42:44;;;;;;;5.30;2.58;;;;;;;37.50;28.49;102114.22;6541035;22;20019;-80
2022/08/11 08:45:17;;;;;;;7.25;2.60;;;;;;;38.01;27.25;102124.75;6514334;22;20392;-81
2022/08/11 08:47:59;;;;;;;7.82;2.20;;;;;;;38.22;28.40;102122.56;6542035;22;20000;-81
2022/08/11 08:53:33;;;;;;;4.60;2.42;;;;;;;39.06;26.97;102112.66;6542078;22;20012;-81
2022/08/11 08:56:06;;;;;;;7.25;2.30;;;;;;;39.48;26.42;102116.38;6541703;22;20004;-81
2022/08/11 08:58:40;;;;;;;8.68;2.50;;;;;;;39.37;25.88;102118.50;6541510;22;19997;-81
2022/08/11 09:01:14;;;;;;;6.60;2.38;;;;;;;39.92;25.20;102120.53;6541527;22;19992;-81
2022/08/11 09:03:45;;;;;;;6.78;2.35;;;;;;;40.64;24.41;102119.75;6514983;22;19999;-81
2022/08/11 09:06:17;;;;;;;8.38;2.50;;;;;;;40.76;24.28;102112.75;6541186;22;19997;-81
2022/08/11 09:08:50;;;;;;;6.53;2.25;;;;;;;40.43;24.06;102110.19;6541859;22;19996;-81
2022/08/11 09:14:13;;;;;;;7.63;2.70;;;;;;;40.52;23.96;102111.13;6541039;22;20018;-81
2022/08/11 09:16:47;;;;;;;5.88;2.30;;;;;;;40.32;23.59;102117.97;6541655;22;20004;-81
2022/08/11 09:19:19;;;;;;;5.93;2.53;;;;;;;41.56;22.39;102112.91;6541637;22;20003;-81
2022/08/11 09:26:58;;;;;;;5.88;2.20;;;;;;;42.39;21.96;102112.09;6542252;22;20008;-81
2022/08/11 09:27:34;;;;;;;4.63;1.98;;;;;;;43.16;21.31;102103.94;6541073;22;20004;-81
2022/08/11 09:30:07;;;;;;;10.77;2.45;;;;;;;43.09;20.86;102106.44;6541368;22;20003;-81
2022/08/11 09:32:40;;;;;;;4.68;2.05;;;;;;;43.25;20.33;102109.50;6541771;22;20070;-81
2022/08/11 09:35:13;;;;;;;3.85;2.00;;;;;;;43.57;19.55;102098.81;6514547;22;20071;-81
2022/08/11 09:40:35;;;;;;;5.13;2.00;;;;;;;42.96;19.53;102097.09;6541629;22;20435;-81
2022/08/11 09:46:00;;;;;;;3.33;2.17;;;;;;;44.18;17.46;102107.75;6541606;22;20091;-80
2022/08/11 09:48:41;;;;;;;6.13;2.03;;;;;;;43.29;18.58;102087.22;6541262;22;20000;-81
2022/08/11 09:51:13;;;;;;;6.13;2.08;;;;;;;44.18;17.75;102096.50;6540648;22;20004;-81
2022/08/11 09:53:45;;;;;;;4.72;1.70;;;;;;;43.27;18.08;102090.34;6541255;22;20401;-81
2022/08/11 09:59:09;;;;;;;6.43;1.85;;;;;;;44.82;17.02;102076.72;6541121;22;20370;-80
2022/08/11 10:01:58;;;;;;;4.57;1.75;;;;;;;45.30;17.46;102073.16;6541925;22;20008;-81
2022/08/11 10:04:40;;;;;;;3.08;1.92;;;;;;;44.91;17.77;102075.44;6540812;22;20327;-81
2022/08/11 10:07:14;;;;;;;5.72;2.05;;;;;;;45.44;17.39;102083.28;6541306;22;20003;-80
2022/08/11 10:09:49;;;;;;;;;;;;;;;47.66;15.55;102079.47;6541542;22;20334;-81
2022/08/11 10:12:23;;;;;;;4.32;1.88;;;;;;;45.20;16.23;102078.44;6542283;22;20594;-81
2022/08/11 10:20:39;;;;;;;5.45;2.08;;;;;;;45.18;16.37;102066.69;6541791;22;20020;-81
2022/08/11 10:28:53;;;;;;;2.58;1.60;;;;;;;45.61;16.10;102057.66;6541207;22;20355;-80
2022/08/11 10:34:15;;;;;;;4.97;1.77;;;;;;;45.34;16.62;102055.59;6541259;22;20016;-81
2022/08/11 10:36:49;;;;;;;7.43;2.25;;;;;;;46.23;15.59;102057.53;6541920;22;20003;-81
2022/08/11 10:39:21;;;;;;;6.22;1.80;;;;;;;45.24;16.32;102054.84;6540573;22;20288;-81
2022/08/11 10:44:46;;;;;;;6.57;2.00;;;;;;;46.56;15.86;102050.84;6541183;22;20024;-80
2022/08/11 10:47:33;;;;;;;8.27;1.92;;;;;;;45.96;15.67;102061.97;6541395;22;20441;-81
2022/08/11 10:58:50;;;;;;;3.75;1.80;;;;;;;47.09;14.66;102039.31;6540419;22;20012;-81
2022/08/11 11:01:21;;;;;;;5.45;1.70;;;;;;;46.98;14.44;102037.03;6540611;22;20024;-81
2022/08/11 11:03:59;;;;;;;4.20;1.75;;;;;;;48.15;13.98;102032.84;6540622;22;20054;-81
2022/08/11 11:06:48;;;;;;;5.82;1.80;;;;;;;48.12;14.27;102042.09;6540647;22;20004;-81
2022/08/11 11:09:33;;;;;;;4.25;1.70;;;;;;;46.95;14.90;102029.31;6540542;22;20430;-81
2022/08/11 11:18:08;;;;;;;3.55;1.55;;;;;;;48.90;12.03;102019.31;6540903;22;20008;-80
2022/08/11 11:20:47;;;;;;;3.00;1.30;;;;;;;47.64;13.10;102014.84;6540808;22;20094;-80
2022/08/11 11:23:52;;;;;;;3.83;1.42;;;;;;;50.01;11.93;102022.97;6540908;22;20039;-80
2022/08/11 11:27:02;;;;;;;1.92;1.67;;;;;;;50.58;11.79;102022.78;6518774;22;20346;-81
2022/08/11 11:30:08;;;;;;;3.80;1.30;;;;;;;49.76;11.77;102012.91;6542070;22;19997;-81
2022/08/11 11:33:06;;;;;;;2.95;1.35;;;;;;;48.91;12.83;102013.25;6538650;22;20423;-81
2022/08/11 11:35:52;;;;;;;3.15;1.35;;;;;;;49.27;12.60;102013.03;6542363;22;20120;-81
2022/08/11 11:38:24;;;;;;;5.40;1.40;;;;;;;48.62;12.17;102014.75;6542297;22;19992;-81
2022/08/11 11:43:46;;;;;;;2.95;1.38;;;;;;;47.66;12.40;101995.50;6541842;22;20016;-80
2022/08/11 11:46:18;;;;;;;4.38;1.23;;;;;;;48.44;12.21;101995.44;6515529;22;20038;-81
2022/08/11 11:48:51;;;;;;;3.75;1.70;;;;;;;47.22;12.14;102003.31;6542177;22;20099;-81
2022/08/11 11:51:23;;;;;;;3.38;1.50;;;;;;;48.55;11.67;101998.50;6541774;22;20002;-80
2022/08/11 11:53:55;;;;;;;3.03;1.50;;;;;;;48.73;11.47;101989.53;6542106;22;20000;-80
2022/08/11 11:56:28;;;;;;;4.22;1.50;;;;;;;48.44;11.62;102003.94;6542099;22;20101;-81
2022/08/11 12:01:52;;;;;;;5.57;1.98;;;;;;;49.12;12.06;101992.97;6542418;22;20306;-80
2022/08/11 12:04:24;;;;;;;10.00;1.77;;;;;;;49.94;11.27;101993.31;6541559;22;19995;-81
2022/08/11 12:08:08;;;;;;;7.90;1.90;;;;;;;48.46;11.47;101978.09;6542048;22;20009;-81
2022/08/11 12:09:48;;;;;;;1.90;1.50;;;;;;;48.59;11.94;101970.25;6541511;22;20107;-81
2022/08/11 12:15:24;;;;;;;3.47;1.40;;;;;;;49.45;11.87;101968.00;6522656;22;20086;-81
2022/08/11 12:17:56;;;;;;;6.13;1.60;;;;;;;49.84;10.99;101977.00;6542392;22;19996;-81
2022/08/11 12:20:28;;;;;;;4.38;1.38;;;;;;;50.22;10.69;101971.34;6542316;22;19995;-81
2022/08/11 12:28:41;;;;;;;1.90;1.48;;;;;;;49.43;11.21;101964.66;6541250;22;20449;-81
2022/08/11 12:31:12;;;;;;;8.30;1.98;;;;;;;49.20;11.09;101957.09;6541915;22;20031;-81
2022/08/11 12:33:45;;;;;;;2.22;1.48;;;;;;;48.45;11.21;101948.19;6542352;22;19997;-81
2022/08/11 12:36:19;;;;;;;5.82;1.67;;;;;;;50.06;10.55;101952.53;6541589;22;20432;-80
2022/08/11 12:38:52;;;;;;;2.55;1.40;;;;;;;49.57;11.24;101954.38;6541693;22;20000;-80
2022/08/11 12:47:07;;;;;;;2.95;1.60;;;;;;;48.73;11.23;101939.38;6541695;22;20012;-80
2022/08/11 12:52:42;;;;;;;2.92;1.42;;;;;;;47.83;12.13;101917.94;6542731;22;20000;-80
2022/08/11 12:58:16;;;;;;;7.85;1.80;;;;;;;47.77;11.93;101927.91;6541688;22;20434;-80
2022/08/11 13:06:29;;;;;;;4.50;1.48;;;;;;;48.15;11.14;101905.59;6542147;22;20012;-80
2022/08/11 13:09:01;;;;;;;1.88;1.15;;;;;;;47.13;11.44;101919.66;6514833;22;19996;-80
2022/08/11 13:14:25;;;;;;;5.72;1.60;;;;;;;46.69;12.20;101907.66;6540442;22;20012;-81
2022/08/11 13:19:48;;;;;;;3.90;1.42;;;;;;;46.90;11.30;101899.78;6541460;22;20000;-80
2022/08/11 13:22:23;;;;;;;3.35;1.38;;;;;;;48.11;11.29;101897.06;6541719;22;20003;-80
2022/08/11 13:24:56;;;;;;;3.95;1.50;;;;;;;47.50;11.15;101895.84;6541548;22;20569;-80
2022/08/11 13:27:29;;;;;;;2.88;1.83;;;;;;;46.79;11.79;101893.00;6543033;22;20000;-79
2022/08/11 13:32:51;;;;;;;4.53;1.50;;;;;;;45.97;12.33;101884.06;6541740;22;20004;-80
2022/08/11 13:35:23;;;;;;;7.35;1.70;;;;;;;45.96;12.47;101893.69;6541476;22;20006;-80
2022/08/11 13:37:56;;;;;;;4.38;1.70;;;;;;;45.00;13.23;101884.00;6515167;22;20000;-80
2022/08/11 13:40:31;;;;;;;4.68;1.88;;;;;;;46.57;12.57;101886.06;6541109;22;20008;-80
2022/08/11 13:43:02;;;;;;;4.03;1.58;;;;;;;46.78;12.24;101880.91;6541446;22;19996;-80
2022/08/11 13:45:36;;;;;;;4.75;1.60;;;;;;;46.69;12.31;101877.47;6538751;22;20009;-80
2022/08/11 13:48:11;;;;;;;4.75;1.63;;;;;;;46.35;11.67;101877.00;6539905;22;20074;-80
2022/08/11 13:53:34;;;;;;;5.78;1.85;;;;;;;46.23;12.34;101868.63;6539822;22;20004;-80
2022/08/11 13:56:05;;;;;;;3.40;2.03;;;;;;;46.15;12.69;101864.81;6541453;22;20430;-80
2022/08/11 13:58:37;;;;;;;2.58;1.65;;;;;;;46.13;12.52;101864.38;6539751;22;20011;-81
2022/08/11 14:01:09;;;;;;;7.35;1.60;;;;;;;45.26;13.13;101863.88;6511278;22;20529;-80
2022/08/11 14:03:42;;;;;;;7.68;1.70;;;;;;;45.82;13.08;101856.66;6538840;22;20071;-81
2022/08/11 14:06:16;;;;;;;4.90;1.65;;;;;;;45.84;13.07;101862.75;6539866;22;20000;-80
2022/08/11 14:08:52;;;;;;;;;;;;;;;47.95;12.36;101865.22;6539499;22;20019;-80
2022/08/11 14:14:20;;;;;;;7.25;2.22;;;;;;;44.48;13.63;101845.28;6539540;22;20346;-80
2022/08/11 14:16:55;;;;;;;3.15;1.60;;;;;;;44.08;14.37;101852.38;6539388;22;20419;-81
2022/08/11 14:19:27;;;;;;;4.43;1.90;;;;;;;43.36;14.86;101848.91;6538278;22;20004;-80
2022/08/11 14:22:07;;;;;;;3.90;1.98;;;;;;;42.51;15.27;101850.75;6537874;22;20075;-80
2022/08/11 14:24:41;;;;;;;3.67;1.90;;;;;;;42.10;15.92;101853.00;6538514;22;20312;-80
2022/08/11 14:27:13;;;;;;;3.55;1.60;;;;;;;42.25;15.69;101848.00;6536945;22;20707;-80
2022/08/11 14:29:45;;;;;;;5.50;1.80;;;;;;;41.33;16.01;101837.91;6538714;22;20006;-80
2022/08/11 14:32:19;;;;;;;8.48;1.92;;;;;;;40.07;16.99;101842.84;6539027;22;20295;-80
2022/08/11 14:34:51;;;;;;;3.83;2.03;;;;;;;39.17;17.29;101829.63;6537882;22;20008;-81
2022/08/11 14:37:26;;;;;;;4.28;2.00;;;;;;;38.29;18.53;101832.50;6538340;22;20331;-81
2022/08/11 14:40:00;;;;;;;3.80;1.70;;;;;;;36.96;19.46;101829.75;6538464;22;20063;-81
2022/08/11 14:48:12;;;;;;;3.58;1.77;;;;;;;36.42;20.61;101832.59;6537069;22;20012;-81
2022/08/11 14:50:45;;;;;;;4.30;1.90;;;;;;;36.75;20.63;101834.75;6538058;22;20008;-81
2022/08/11 14:53:16;;;;;;;5.15;2.15;;;;;;;35.93;21.44;101836.38;6537520;22;20059;-81
2022/08/11 14:58:41;;;;;;;7.03;2.03;;;;;;;35.20;21.77;101816.59;6537401;22;20008;-81
2022/08/11 15:04:03;;;;;;;5.97;2.13;;;;;;;35.91;21.76;101827.50;6538155;22;20004;-81
2022/08/11 15:06:36;;;;;;;5.93;1.95;;;;;;;35.24;22.24;101818.78;6540056;22;20011;-81
2022/08/11 15:09:07;;;;;;;6.07;1.70;;;;;;;36.10;22.08;101811.78;6539690;22;20004;-81
2022/08/11 15:17:21;;;;;;;3.95;2.10;;;;;;;35.08;22.11;101813.28;6539158;22;20000;-81
2022/08/11 15:25:35;;;;;;;5.00;2.17;;;;;;;34.52;22.31;101806.00;6540414;22;20008;-81
2022/08/11 15:45:48;;;;;;;3.90;1.83;;;;;;;33.16;23.85;101786.03;6539871;22;20386;-81
2022/08/11 15:48:28;;;;;;;3.58;1.73;;;;;;;33.11;24.61;101783.22;6512809;22;19996;-81
2022/08/11 15:51:08;;;;;;;4.93;2.50;;;;;;;33.18;25.26;101787.69;6540649;22;20000;-82
2022/08/11 15:53:42;;;;;;;4.93;2.50;;;;;;;33.10;24.72;101778.81;6513886;22;20020;-82
2022/08/11 15:56:15;;;;;;;4.88;2.45;;;;;;;33.22;24.10;101786.03;6541749;22;20377;-81
2022/08/11 16:04:37;;;;;;;2.75;2.00;;;;;;;32.64;24.91;101775.84;6539529;22;20000;-82
2022/08/11 16:07:14;;;;;;;3.47;1.83;;;;;;;32.42;24.72;101778.75;6539887;22;20038;-81
2022/08/11 16:10:22;;;;;;;3.78;1.90;;;;;;;32.32;25.11;101773.16;6512544;22;20003;-81
2022/08/11 16:18:41;;;;;;;5.93;2.80;;;;;;;32.27;25.87;101765.69;6539433;22;20422;-82
2022/08/11 16:21:16;;;;;;;4.10;1.88;;;;;;;31.93;25.14;101765.16;6512644;22;19996;-83
2022/08/11 16:23:49;;;;;;;3.15;2.63;;;;;;;31.85;25.58;101766.47;6539204;22;20001;-81
2022/08/11 16:26:22;;;;;;;5.43;1.75;;;;;;;31.75;25.43;101772.75;6539038;22;19996;-81
2022/08/11 16:28:57;;;;;;;5.85;1.90;;;;;;;31.56;25.83;101766.78;6539991;22;19996;-82
2022/08/11 16:31:30;;;;;;;3.47;1.90;;;;;;;31.49;25.93;101760.66;6513365;22;20197;-81
2022/08/11 16:34:03;;;;;;;6.80;2.92;;;;;;;31.44;27.04;101760.56;6540330;22;20028;-81
2022/08/11 16:39:27;;;;;;;6.22;2.00;;;;;;;31.62;26.91;101756.63;6540186;22;20004;-81
2022/08/11 16:47:41;;;;;;;3.80;1.90;;;;;;;31.20;27.26;101738.00;6540588;22;20000;-82
2022/08/11 16:50:14;;;;;;;3.10;1.60;;;;;;;31.14;27.08;101747.28;6513111;22;20004;-81
2022/08/11 16:52:45;;;;;;;3.88;2.03;;;;;;;31.31;27.19;101745.25;6540979;22;20003;-83
2022/08/11 16:55:16;;;;;;;4.68;1.70;;;;;;;31.40;27.80;101740.09;6540085;22;20004;-82
2022/08/11 17:00:39;;;;;;;4.78;1.95;;;;;;;31.01;28.03;101740.25;6540841;22;20012;-83
2022/08/11 17:14:49;;;;;;;6.70;3.80;;;;;;;30.98;29.57;101740.78;6539837;22;20012;-82
2022/08/11 17:17:26;;;;;;;4.22;1.80;;;;;;;30.76;29.29;101736.09;6539131;22;20529;-82
2022/08/11 17:20:01;;;;;;;3.58;1.60;;;;;;;30.66;29.26;101728.56;6539193;22;20000;-82
2022/08/11 17:25:27;;;;;;;3.55;1.80;;;;;;;30.53;29.51;101732.50;6540473;22;20004;-82
2022/08/11 17:27:59;;;;;;;4.82;2.08;;;;;;;30.43;29.46;101735.13;6541780;22;20457;-82
2022/08/11 17:36:35;;;;;;;5.03;1.88;;;;;;;30.22;30.08;101733.13;6441769;23;20416;-82
2022/08/11 17:39:07;;;;;;;2.85;1.95;;;;;;;30.36;30.56;101728.97;6510738;22;20080;-82
2022/08/11 17:50:12;;;;;;;6.78;1.90;;;;;;;29.94;31.68;101729.41;6541109;22;20004;-81